Time;durP1;ratioP1;P1;durP2;ratioP2;P2;SDS_P1;SDS_P2;PMS_P1;PMS_P2;Temp;Humidity;BMP_temperature;BMP_pressure;BME280_temperature;BME280_humidity;BME280_pressure;Samples;Min_cycle;Max_cycle;Signal;HPM_P1;HPM_P2
2022/07/12 00:02:00;;;;;;;12.55;3.47;;;;;;;26.72;49.39;101385.88;5006617;28;20104;-81
2022/07/12 00:04:27;;;;;;;16.15;3.95;;;;;;;26.77;49.42;101388.75;4989540;28;20387;-81
2022/07/12 00:06:54;;;;;;;12.35;3.55;;;;;;;26.95;49.46;101424.22;5006937;28;20050;-81
2022/07/12 00:09:21;;;;;;;16.88;3.50;;;;;;;26.95;49.59;101426.94;4989374;28;20180;-82
2022/07/12 00:11:47;;;;;;;8.10;3.38;;;;;;;26.73;49.59;101393.00;4989340;28;20046;-82
2022/07/12 00:14:14;;;;;;;7.28;3.15;;;;;;;26.82;49.46;101402.53;5007085;28;20498;-81
2022/07/12 00:16:41;;;;;;;8.30;3.30;;;;;;;26.71;49.33;101392.41;5010135;28;20460;-82
2022/07/12 00:19:08;;;;;;;9.48;3.78;;;;;;;26.71;49.62;101400.56;4993323;28;20085;-80
2022/07/12 00:21:35;;;;;;;10.15;3.72;;;;;;;26.47;49.80;101362.22;4992880;28;20068;-81
2022/07/12 00:24:02;;;;;;;12.48;3.45;;;;;;;26.48;50.11;101385.66;5010009;28;20513;-81
2022/07/12 00:26:28;;;;;;;6.68;2.90;;;;;;;26.76;49.71;101427.97;5010580;28;20138;-81
2022/07/12 00:28:56;;;;;;;12.52;3.70;;;;;;;26.47;49.48;101373.09;4992943;28;20049;-81
2022/07/12 00:31:23;;;;;;;6.00;2.97;;;;;;;26.62;49.73;101389.94;4992889;28;20050;-81
2022/07/12 00:33:49;;;;;;;5.45;2.95;;;;;;;26.69;49.89;101402.69;5010205;28;20141;-81
2022/07/12 00:36:16;;;;;;;10.75;3.22;;;;;;;26.93;49.72;101420.88;4992813;28;20402;-82
2022/07/12 00:38:43;;;;;;;13.43;2.88;;;;;;;26.67;49.52;101389.28;4991485;28;20050;-81
2022/07/12 00:41:09;;;;;;;15.43;3.95;;;;;;;26.66;50.02;101397.69;4973273;28;20058;-82
2022/07/12 00:43:36;;;;;;;5.32;3.00;;;;;;;26.57;49.75;101376.16;4990308;28;20532;-82
2022/07/12 00:46:03;;;;;;;14.05;3.20;;;;;;;26.47;49.51;101343.16;4990494;28;20082;-81
2022/07/12 00:48:34;;;;;;;12.07;3.45;;;;;;;26.06;49.49;101273.00;4973367;28;20078;-83
2022/07/12 00:51:01;;;;;;;11.32;3.17;;;;;;;26.63;49.58;101382.63;4973002;28;20046;-82
2022/07/12 00:53:27;;;;;;;8.70;3.90;;;;;;;26.61;49.59;101368.41;4982196;28;20547;-83
2022/07/12 00:55:56;;;;;;;6.75;3.35;;;;;;;26.77;49.78;101418.72;5010481;28;20057;-83
2022/07/12 00:58:24;;;;;;;8.05;3.40;;;;;;;26.76;49.92;101427.97;4992753;28;20058;-82
2022/07/12 01:00:51;;;;;;;9.43;3.15;;;;;;;26.73;50.22;101425.69;5009476;28;20151;-83
2022/07/12 01:03:18;;;;;;;8.32;3.38;;;;;;;26.53;50.09;101404.94;4991964;28;20135;-83
2022/07/12 01:05:45;;;;;;;7.25;3.35;;;;;;;26.42;50.26;101400.16;5009460;28;20061;-83
2022/07/12 01:08:14;;;;;;;15.75;4.25;;;;;;;26.65;50.44;101437.69;5009738;28;20046;-83
2022/07/12 01:10:43;;;;;;;8.40;3.70;;;;;;;26.70;50.40;101429.69;5009704;28;20085;-82
2022/07/12 01:13:09;;;;;;;8.70;3.60;;;;;;;26.86;50.00;101441.91;5009874;28;20053;-82
2022/07/12 01:15:37;;;;;;;8.13;3.70;;;;;;;26.43;50.62;101380.03;5009756;28;20151;-82
2022/07/12 01:18:04;;;;;;;14.57;3.95;;;;;;;26.55;50.72;101435.47;5009507;28;20054;-82
2022/07/12 01:20:32;;;;;;;11.60;3.58;;;;;;;26.35;50.95;101402.09;5009349;28;20142;-80
2022/07/12 01:22:59;;;;;;;10.85;3.55;;;;;;;26.44;51.34;101441.63;4991939;28;20078;-82
2022/07/12 01:25:27;;;;;;;7.10;3.60;;;;;;;26.29;51.32;101420.16;4991774;28;20050;-82
2022/07/12 01:27:53;;;;;;;6.05;3.67;;;;;;;25.95;51.39;101369.75;5008550;28;20073;-82
2022/07/12 01:30:20;;;;;;;6.53;3.65;;;;;;;25.96;51.58;101365.97;5009214;28;20425;-82
2022/07/12 01:32:47;;;;;;;10.90;3.75;;;;;;;26.06;51.44;101384.53;4991513;28;20490;-82
2022/07/12 01:35:14;;;;;;;14.35;4.93;;;;;;;26.35;51.50;101432.88;5008941;28;20042;-82
2022/07/12 01:37:42;;;;;;;8.50;3.97;;;;;;;26.12;52.00;101419.88;4991786;28;20260;-82
2022/07/12 01:40:11;;;;;;;13.65;4.03;;;;;;;26.20;52.01;101451.41;4975639;28;20050;-82
2022/07/12 01:42:39;;;;;;;11.77;5.50;;;;;;;26.21;51.96;101448.47;4970166;28;20205;-81
2022/07/12 01:45:07;;;;;;;8.05;4.63;;;;;;;26.18;52.53;101451.63;4968710;28;20136;-82
2022/07/12 01:47:34;;;;;;;13.48;6.03;;;;;;;26.12;52.00;101436.19;4952786;28;20050;-82
2022/07/12 01:50:07;;;;;;;11.82;4.72;;;;;;;24.90;51.93;101240.47;4969642;28;20129;-81
2022/07/12 01:52:34;;;;;;;13.65;4.28;;;;;;;25.85;52.39;101418.31;4971144;28;20059;-82
2022/07/12 01:55:01;;;;;;;11.82;3.97;;;;;;;25.96;52.59;101459.28;4991474;28;20112;-82
2022/07/12 01:57:28;;;;;;;9.93;3.88;;;;;;;25.70;52.99;101433.03;4991778;28;20054;-81
2022/07/12 01:59:55;;;;;;;8.63;3.28;;;;;;;25.25;53.06;101365.09;4990811;28;20461;-80
2022/07/12 02:02:26;;;;;;;6.55;3.50;;;;;;;25.57;53.10;101408.63;4990830;28;20054;-80
2022/07/12 02:04:54;;;;;;;8.40;3.10;;;;;;;25.88;53.32;101458.72;4992425;28;20077;-82
2022/07/12 02:07:23;;;;;;;11.73;3.85;;;;;;;25.65;53.33;101446.44;4991564;28;20053;-81
2022/07/12 02:09:50;;;;;;;8.68;3.33;;;;;;;25.71;53.44;101471.97;4991462;28;20501;-82
2022/07/12 02:12:17;;;;;;;7.80;3.30;;;;;;;25.63;53.60;101464.03;4991049;28;20058;-80
2022/07/12 02:14:43;;;;;;;8.00;3.75;;;;;;;25.58;53.65;101460.09;5008782;28;20057;-82
2022/07/12 02:17:10;;;;;;;7.57;2.95;;;;;;;25.66;53.28;101450.84;4991076;28;20046;-82
2022/07/12 02:19:37;;;;;;;6.00;3.22;;;;;;;25.61;53.61;101437.06;5008292;28;20128;-82
2022/07/12 02:22:03;;;;;;;6.55;2.90;;;;;;;25.40;53.07;101380.28;4990738;28;20053;-79
2022/07/12 02:24:30;;;;;;;6.57;3.55;;;;;;;25.55;53.34;101418.88;4990504;28;20497;-81
2022/07/12 02:26:57;;;;;;;8.57;3.47;;;;;;;25.52;53.23;101431.03;4990878;28;20140;-82
2022/07/12 02:29:23;;;;;;;6.85;3.42;;;;;;;25.73;53.46;101470.69;4990152;28;20069;-81
2022/07/12 02:31:50;;;;;;;6.82;2.92;;;;;;;25.70;53.44;101462.94;4990664;28;20394;-81
2022/07/12 02:34:17;;;;;;;5.43;3.65;;;;;;;25.79;53.26;101467.09;4990133;28;20053;-81
2022/07/12 02:36:44;;;;;;;10.15;3.40;;;;;;;25.59;53.71;101458.19;4990719;28;20151;-82
2022/07/12 02:39:11;;;;;;;8.00;3.60;;;;;;;25.64;53.56;101458.38;4981110;28;20550;-82
2022/07/12 02:41:37;;;;;;;8.80;3.35;;;;;;;25.70;53.70;101471.09;4951127;28;20066;-80
2022/07/12 02:44:04;;;;;;;6.82;3.63;;;;;;;25.52;53.59;101452.78;4951627;28;20612;-82
2022/07/12 02:46:31;;;;;;;7.72;3.08;;;;;;;25.59;53.84;101485.38;4968531;28;20082;-80
2022/07/12 02:48:58;;;;;;;6.78;3.55;;;;;;;25.52;54.03;101473.69;4967369;28;20458;-81
2022/07/12 02:51:24;;;;;;;7.95;3.20;;;;;;;25.38;54.35;101451.16;4967261;28;20106;-82
2022/07/12 02:53:51;;;;;;;4.38;3.85;;;;;;;25.42;54.17;101474.16;4975380;28;20049;-80
2022/07/12 02:56:18;;;;;;;5.50;3.50;;;;;;;25.32;54.27;101463.72;5008586;28;20061;-81
2022/07/12 02:58:44;;;;;;;7.82;3.53;;;;;;;25.36;54.44;101477.69;4990130;28;20054;-81
2022/07/12 03:01:11;;;;;;;8.20;2.92;;;;;;;25.32;54.88;101485.47;4989932;28;20058;-81
2022/07/12 03:03:38;;;;;;;7.82;3.58;;;;;;;25.12;54.91;101455.59;4989998;28;20049;-81
2022/07/12 03:06:05;;;;;;;3.85;3.05;;;;;;;25.34;55.27;101483.38;4990089;28;20053;-80
2022/07/12 03:08:31;;;;;;;12.43;3.25;;;;;;;25.37;54.79;101482.94;4989776;28;20149;-81
2022/07/12 03:10:58;;;;;;;10.13;3.80;;;;;;;25.32;55.13;101477.31;5007384;28;20046;-80
2022/07/12 03:13:25;;;;;;;9.00;3.72;;;;;;;25.12;55.25;101468.31;5007043;28;20077;-80
2022/07/12 03:15:51;;;;;;;12.80;3.58;;;;;;;25.11;55.33;101472.09;5007178;28;20045;-80
2022/07/12 03:18:18;;;;;;;6.68;3.60;;;;;;;25.27;55.29;101487.97;5006884;28;20426;-81
2022/07/12 03:20:45;;;;;;;6.95;3.10;;;;;;;25.18;55.34;101494.69;4989695;28;20045;-80
2022/07/12 03:23:11;;;;;;;4.85;3.47;;;;;;;25.24;55.61;101493.00;5006915;28;20057;-80
2022/07/12 03:25:38;;;;;;;7.13;3.95;;;;;;;24.91;55.94;101456.66;4989960;28;20073;-80
2022/07/12 03:28:05;;;;;;;7.25;3.80;;;;;;;24.75;55.98;101440.78;4989739;28;20103;-81
2022/07/12 03:30:31;;;;;;;7.45;3.55;;;;;;;25.05;56.13;101498.22;5006653;28;20100;-80
2022/07/12 03:32:58;;;;;;;8.00;3.40;;;;;;;24.52;56.20;101419.50;4989812;28;20081;-80
2022/07/12 03:35:25;;;;;;;9.10;3.60;;;;;;;24.83;56.05;101480.47;4973169;28;20104;-80
2022/07/12 03:37:52;;;;;;;9.02;3.70;;;;;;;25.02;55.93;101508.66;4987530;28;20077;-81
2022/07/12 03:40:20;;;;;;;8.52;4.05;;;;;;;25.00;56.04;101502.59;4968994;28;20267;-82
2022/07/12 03:42:48;;;;;;;9.15;3.90;;;;;;;25.14;55.99;101523.28;4970242;28;20247;-82
2022/07/12 03:45:16;;;;;;;6.25;3.50;;;;;;;24.93;55.75;101468.16;4990541;28;20127;-83
2022/07/12 03:47:43;;;;;;;9.50;3.60;;;;;;;25.27;55.24;101515.16;4992455;28;20051;-82
2022/07/12 03:50:12;;;;;;;5.63;3.25;;;;;;;25.01;55.33;101464.38;4994972;28;20057;-82
2022/07/12 03:52:41;;;;;;;4.55;3.20;;;;;;;25.13;55.25;101502.59;4979633;28;20220;-82
2022/07/12 03:55:09;;;;;;;12.70;4.13;;;;;;;25.19;55.43;101506.38;4975416;28;20047;-82
2022/07/12 03:57:36;;;;;;;6.68;3.45;;;;;;;25.35;55.30;101522.25;4973269;28;20042;-82
2022/07/12 04:00:11;;;;;;;14.45;3.70;;;;;;;25.28;55.34;101516.81;4990854;28;20116;-83
2022/07/12 04:02:39;;;;;;;7.30;3.95;;;;;;;25.25;55.12;101494.69;4972117;28;20509;-82
2022/07/12 04:05:08;;;;;;;6.07;3.30;;;;;;;24.25;54.90;101337.25;4973475;28;20042;-83
2022/07/12 04:07:35;;;;;;;7.63;3.70;;;;;;;25.36;55.11;101508.44;4973651;28;20329;-82
2022/07/12 04:10:03;;;;;;;5.65;3.05;;;;;;;25.31;55.10;101502.78;4972042;28;20144;-82
2022/07/12 04:12:29;;;;;;;16.30;4.72;;;;;;;25.26;55.22;101501.78;4972038;28;20112;-83
2022/07/12 04:14:56;;;;;;;7.25;3.85;;;;;;;25.14;55.59;101487.97;4971826;28;20089;-83
2022/07/12 04:17:23;;;;;;;7.65;4.22;;;;;;;25.25;55.45;101503.66;4972369;28;20050;-82
2022/07/12 04:19:49;;;;;;;8.85;4.13;;;;;;;24.95;55.59;101448.91;4971886;28;20125;-81
2022/07/12 04:22:16;;;;;;;13.60;3.83;;;;;;;25.20;55.62;101498.03;4971260;28;20561;-81
2022/07/12 04:24:43;;;;;;;10.60;3.95;;;;;;;24.98;55.97;101483.81;4971513;28;20133;-82
2022/07/12 04:27:09;;;;;;;7.25;4.45;;;;;;;25.13;55.94;101495.28;4971986;28;20140;-82
2022/07/12 04:29:36;;;;;;;6.80;3.53;;;;;;;25.21;56.07;101515.16;4989241;28;20113;-82
2022/07/12 04:32:03;;;;;;;7.00;4.03;;;;;;;25.30;55.88;101513.91;4971944;28;20457;-82
2022/07/12 04:34:30;;;;;;;7.55;3.85;;;;;;;25.35;55.40;101511.38;4972265;28;20066;-81
2022/07/12 04:36:56;;;;;;;7.40;3.70;;;;;;;25.41;55.46;101532.25;4989687;28;20141;-82
2022/07/12 04:39:23;;;;;;;13.82;4.45;;;;;;;25.40;55.56;101525.16;4972966;28;20100;-82
2022/07/12 04:41:50;;;;;;;8.10;4.43;;;;;;;25.35;55.25;101514.09;4973257;28;20077;-82
2022/07/12 04:44:16;;;;;;;7.93;3.30;;;;;;;25.55;55.26;101527.63;4972694;28;20623;-82
2022/07/12 04:46:43;;;;;;;6.88;3.72;;;;;;;25.38;55.82;101506.34;4972996;28;20113;-82
2022/07/12 04:49:10;;;;;;;6.32;4.28;;;;;;;25.61;55.47;101532.22;4973088;28;20081;-81
2022/07/12 04:51:37;;;;;;;6.70;3.50;;;;;;;25.65;55.21;101528.00;4973039;28;20092;-82
2022/07/12 04:54:03;;;;;;;7.43;3.63;;;;;;;25.34;54.79;101477.94;4989956;28;20045;-82
2022/07/12 04:56:30;;;;;;;14.40;3.78;;;;;;;25.75;54.66;101533.00;5015437;28;20065;-82
2022/07/12 04:58:57;;;;;;;5.63;3.50;;;;;;;25.79;54.50;101532.34;5013582;28;20045;-82
2022/07/12 05:01:28;;;;;;;7.93;3.85;;;;;;;25.69;54.49;101523.81;4991501;28;20050;-82
2022/07/12 05:03:55;;;;;;;7.22;3.88;;;;;;;25.70;54.53;101520.03;4992148;28;20052;-81
2022/07/12 05:06:22;;;;;;;9.32;3.72;;;;;;;25.30;54.44;101465.81;5009536;28;20046;-82
2022/07/12 05:08:49;;;;;;;10.70;3.33;;;;;;;25.81;54.55;101548.47;4992036;28;20128;-81
2022/07/12 05:11:16;;;;;;;8.43;3.80;;;;;;;25.86;54.35;101551.41;4992383;28;20053;-82
2022/07/12 05:13:43;;;;;;;6.75;3.70;;;;;;;25.73;54.10;101532.38;4992037;28;20395;-82
2022/07/12 05:16:10;;;;;;;10.27;3.92;;;;;;;26.02;53.80;101569.13;4992021;28;20057;-81
2022/07/12 05:18:36;;;;;;;7.30;3.72;;;;;;;25.84;53.82;101541.78;4992332;28;20139;-83
2022/07/12 05:21:03;;;;;;;11.45;3.90;;;;;;;26.01;53.96;101548.41;4991711;28;20057;-81
2022/07/12 05:23:30;;;;;;;6.32;3.35;;;;;;;25.96;53.84;101540.91;4992097;28;20544;-81
2022/07/12 05:25:57;;;;;;;7.90;3.30;;;;;;;26.20;53.53;101552.94;4991814;28;20061;-81
2022/07/12 05:28:24;;;;;;;11.70;4.18;;;;;;;26.12;53.51;101544.16;4991439;28;20080;-80
2022/07/12 05:30:50;;;;;;;8.65;3.38;;;;;;;26.03;53.35;101512.84;4991833;28;20057;-81
2022/07/12 05:33:17;;;;;;;7.70;3.55;;;;;;;26.13;53.41;101534.97;4991998;28;20054;-82
2022/07/12 05:35:44;;;;;;;5.97;3.58;;;;;;;26.42;52.44;101555.34;4992147;28;20050;-82
2022/07/12 05:38:10;;;;;;;8.85;4.28;;;;;;;26.12;52.38;101509.66;4991620;28;20086;-81
2022/07/12 05:40:37;;;;;;;7.75;4.43;;;;;;;25.38;52.76;101403.06;4974844;28;20081;-82
2022/07/12 05:43:04;;;;;;;7.03;3.67;;;;;;;26.27;52.77;101558.34;4971814;28;20051;-81
2022/07/12 05:45:30;;;;;;;6.70;3.90;;;;;;;26.27;53.27;101573.84;4988723;28;20478;-81
2022/07/12 05:47:57;;;;;;;7.78;3.97;;;;;;;26.54;52.48;101569.13;4971177;28;20058;-82
2022/07/12 05:50:24;;;;;;;12.90;4.43;;;;;;;26.39;52.31;101572.94;4971369;28;20101;-81
2022/07/12 05:55:38;;;;;;;7.20;3.78;;;;;;;26.30;52.36;101546.19;5009171;28;20050;-82
2022/07/12 05:58:05;;;;;;;9.35;3.78;;;;;;;26.37;52.17;101555.16;5007987;28;20104;-81
2022/07/12 06:00:32;;;;;;;12.52;4.05;;;;;;;26.36;51.97;101546.16;4991000;28;20057;-82
2022/07/12 06:02:59;;;;;;;11.27;4.47;;;;;;;26.54;51.52;101575.38;4990192;28;20112;-81
2022/07/12 06:05:26;;;;;;;5.60;3.80;;;;;;;26.52;52.04;101582.91;4991362;28;20081;-81
2022/07/12 06:07:53;;;;;;;8.07;3.63;;;;;;;26.56;51.64;101594.25;4991401;28;20049;-81
2022/07/12 06:10:20;;;;;;;9.93;3.38;;;;;;;26.31;51.76;101556.88;4989623;28;20137;-82
2022/07/12 06:12:47;;;;;;;6.43;3.25;;;;;;;26.52;51.33;101579.34;5007199;28;20060;-82
2022/07/12 06:15:14;;;;;;;9.85;4.00;;;;;;;26.67;51.16;101592.69;4988845;28;20057;-82
2022/07/12 06:17:41;;;;;;;6.95;3.28;;;;;;;26.61;51.03;101586.25;4988668;28;20525;-81
2022/07/12 06:20:09;;;;;;;4.55;3.67;;;;;;;26.40;51.40;101560.16;5006752;28;20056;-81
2022/07/12 06:22:36;;;;;;;6.00;3.42;;;;;;;26.61;51.72;101592.53;4989407;28;20054;-81
2022/07/12 06:25:03;;;;;;;6.22;3.47;;;;;;;26.70;52.05;101584.94;4990345;28;20046;-84
2022/07/12 06:27:50;;;;;;;4.85;3.40;;;;;;;26.75;51.76;101581.53;5007954;28;20350;-83
2022/07/12 06:30:20;;;;;;;5.03;3.50;;;;;;;26.56;52.07;101583.34;4990836;28;20533;-82
2022/07/12 06:32:48;;;;;;;8.15;3.95;;;;;;;26.50;51.96;101568.66;4990964;28;20064;-82
2022/07/12 06:35:15;;;;;;;5.28;3.22;;;;;;;26.38;51.58;101549.47;4991008;28;20116;-83
2022/07/12 06:37:45;;;;;;;8.73;3.80;;;;;;;26.84;51.58;101597.38;5007832;28;20050;-81
2022/07/12 06:40:12;;;;;;;7.72;3.40;;;;;;;26.96;51.29;101583.88;4974080;28;20053;-82
2022/07/12 06:42:38;;;;;;;7.03;3.63;;;;;;;27.03;51.05;101590.13;4959404;28;20475;-83
2022/07/12 06:45:06;;;;;;;4.28;2.97;;;;;;;26.84;50.52;101552.97;4988546;28;20050;-82
2022/07/12 06:47:33;;;;;;;12.73;3.75;;;;;;;27.28;50.43;101613.84;4970934;28;20046;-82
2022/07/12 06:50:00;;;;;;;8.85;4.00;;;;;;;27.34;49.73;101596.59;4971307;28;20057;-81
2022/07/12 06:52:27;;;;;;;8.80;3.92;;;;;;;27.15;49.90;101571.16;4970830;28;20112;-81
2022/07/12 06:54:57;;;;;;;6.97;4.00;;;;;;;27.25;50.01;101593.31;4990818;28;20042;-82
2022/07/12 06:57:26;;;;;;;4.25;3.50;;;;;;;26.53;49.97;101463.94;4991428;28;20476;-80
2022/07/12 06:59:54;;;;;;;13.57;4.13;;;;;;;27.37;50.39;101607.06;4990428;28;20129;-80
2022/07/12 07:02:21;;;;;;;5.53;3.17;;;;;;;27.36;49.55;101577.31;5007172;28;20136;-83
2022/07/12 07:04:48;;;;;;;9.10;4.00;;;;;;;27.62;49.45;101603.47;4976330;28;20097;-83
2022/07/12 07:07:15;;;;;;;8.73;3.58;;;;;;;27.54;49.68;101595.59;4986957;28;20054;-82
2022/07/12 07:09:42;;;;;;;4.97;3.40;;;;;;;27.60;49.37;101602.84;4969638;28;20096;-81
2022/07/12 07:12:09;;;;;;;8.30;3.55;;;;;;;27.10;48.71;101496.59;4969834;28;20105;-82
2022/07/12 07:14:36;;;;;;;11.20;4.10;;;;;;;27.04;48.95;101492.84;4969253;28;20506;-81
2022/07/12 07:17:03;;;;;;;9.80;3.45;;;;;;;27.68;49.07;101611.56;4987369;28;20057;-82
2022/07/12 07:19:30;;;;;;;13.05;3.63;;;;;;;27.73;49.02;101608.19;4987241;28;20061;-81
2022/07/12 07:21:58;;;;;;;9.05;3.22;;;;;;;27.74;48.97;101612.56;4968954;28;20050;-82
2022/07/12 07:24:26;;;;;;;8.20;3.28;;;;;;;27.65;48.61;101592.13;4985696;28;20577;-81
2022/07/12 07:26:53;;;;;;;5.85;3.58;;;;;;;27.78;48.61;101616.50;4969468;28;20223;-80
2022/07/12 07:32:09;;;;;;;8.85;3.53;;;;;;;27.87;48.53;101628.84;4986344;28;20262;-82
2022/07/12 07:34:35;;;;;;;6.53;3.10;;;;;;;28.03;48.01;101632.00;4969268;28;20061;-81
2022/07/12 07:37:02;;;;;;;8.48;2.90;;;;;;;27.90;48.09;101616.63;4969638;28;20070;-80
2022/07/12 07:39:39;;;;;;;5.03;3.33;;;;;;;28.01;48.29;101628.66;4986151;28;20075;-82
2022/07/12 07:42:05;;;;;;;12.52;3.55;;;;;;;27.91;48.05;101607.38;4969760;28;20120;-79
2022/07/12 07:44:32;;;;;;;11.25;3.47;;;;;;;27.70;48.67;101603.19;4987977;28;20054;-81
2022/07/12 07:46:59;;;;;;;8.40;3.22;;;;;;;27.83;48.69;101599.50;4969473;28;20061;-82
2022/07/12 07:49:26;;;;;;;15.45;3.53;;;;;;;28.03;48.37;101616.47;4969108;28;20469;-81
2022/07/12 07:51:54;;;;;;;5.55;3.33;;;;;;;27.92;48.22;101598.97;4969482;28;20078;-82
2022/07/12 07:54:20;;;;;;;3.88;3.20;;;;;;;28.21;48.24;101642.94;5001917;28;20108;-80
2022/07/12 07:56:47;;;;;;;5.55;2.97;;;;;;;27.86;48.21;101593.56;4988904;28;20069;-80
2022/07/12 07:59:14;;;;;;;8.70;3.10;;;;;;;28.05;48.06;101599.88;5005865;28;20058;-80
2022/07/12 08:01:48;;;;;;;5.82;3.15;;;;;;;28.18;47.89;101626.16;4988028;28;20165;-83
2022/07/12 08:04:16;;;;;;;3.78;2.58;;;;;;;28.00;47.76;101576.00;4988499;28;20085;-83
2022/07/12 08:06:43;;;;;;;7.57;3.40;;;;;;;28.18;47.84;101591.53;4989174;28;20077;-83
2022/07/12 08:09:10;;;;;;;8.07;2.83;;;;;;;27.80;47.56;101529.81;4989796;28;20054;-82
2022/07/12 08:11:40;;;;;;;10.15;3.28;;;;;;;28.02;47.26;101553.94;4993573;28;20061;-83
2022/07/12 08:14:07;;;;;;;6.47;3.70;;;;;;;28.16;47.76;101576.41;4993625;28;20472;-82
2022/07/12 08:16:35;;;;;;;5.50;2.80;;;;;;;28.25;47.16;101586.78;4981638;28;20050;-83
2022/07/12 08:19:03;;;;;;;6.75;3.30;;;;;;;28.53;46.93;101635.38;4977840;28;20792;-81
2022/07/12 08:21:30;;;;;;;7.68;3.10;;;;;;;28.53;47.15;101631.84;4992484;28;20129;-83
2022/07/12 08:23:57;;;;;;;8.40;3.13;;;;;;;28.01;47.05;101552.25;4979320;28;20053;-83
2022/07/12 08:26:24;;;;;;;10.50;3.20;;;;;;;28.38;47.26;101599.44;4964518;28;20061;-83
2022/07/12 08:28:51;;;;;;;8.57;3.92;;;;;;;28.51;47.38;101623.03;4979940;28;20047;-82
2022/07/12 08:31:18;;;;;;;6.43;3.30;;;;;;;28.54;47.17;101628.03;4969289;28;20119;-83
2022/07/12 08:33:44;;;;;;;6.22;2.72;;;;;;;28.44;47.36;101601.25;4981713;28;20097;-83
2022/07/12 08:36:11;;;;;;;5.13;3.00;;;;;;;28.61;47.16;101617.00;4966764;28;20113;-82
2022/07/12 08:38:38;;;;;;;8.10;3.22;;;;;;;28.75;46.72;101624.78;4963774;28;20046;-82
2022/07/12 08:41:05;;;;;;;6.80;3.05;;;;;;;28.52;46.40;101587.31;4963181;28;20089;-83
2022/07/12 08:43:36;;;;;;;10.57;3.00;;;;;;;28.55;46.79;101607.84;4970898;28;20469;-82
2022/07/12 08:46:07;;;;;;;4.37;2.90;;;;;;;28.05;46.56;101518.00;4971901;28;20572;-84
2022/07/12 08:48:34;;;;;;;5.55;3.92;;;;;;;28.91;45.66;101609.63;4952462;28;20047;-82
2022/07/12 08:51:09;;;;;;;9.27;3.30;;;;;;;29.08;45.48;101633.56;4970093;28;20149;-82
2022/07/12 08:53:37;;;;;;;10.00;2.92;;;;;;;29.09;45.15;101624.31;4972182;28;20061;-82
2022/07/12 08:56:05;;;;;;;7.10;3.35;;;;;;;28.83;45.23;101558.03;4991748;28;20509;-81
2022/07/12 08:58:32;;;;;;;3.83;3.00;;;;;;;29.30;45.44;101650.22;4982129;28;20149;-81
2022/07/12 09:01:00;;;;;;;5.88;3.05;;;;;;;28.57;45.55;101528.41;4976400;28;20260;-82
2022/07/12 09:03:27;;;;;;;3.47;2.78;;;;;;;28.93;45.16;101582.91;4954518;28;20058;-83
2022/07/12 09:05:57;;;;;;;4.43;3.10;;;;;;;29.15;45.09;101628.81;4953907;28;20043;-82
2022/07/12 09:08:28;;;;;;;9.93;3.75;;;;;;;28.76;45.08;101554.56;4971085;28;20109;-80
2022/07/12 09:11:03;;;;;;;11.48;3.72;;;;;;;28.53;45.03;101508.94;4953535;28;20054;-82
2022/07/12 09:13:48;;;;;;;13.65;3.42;;;;;;;29.37;44.99;101623.59;4953177;28;20069;-83
2022/07/12 09:16:16;;;;;;;4.57;2.90;;;;;;;29.34;43.97;101594.00;4953053;28;20515;-82
2022/07/12 09:18:44;;;;;;;7.22;3.15;;;;;;;29.60;43.39;101596.25;4970334;28;20133;-81
2022/07/12 09:21:22;;;;;;;7.07;3.72;;;;;;;29.73;44.02;101627.19;4953528;28;20097;-81
2022/07/12 09:23:57;;;;;;;9.15;3.65;;;;;;;29.41;44.17;101572.84;4953451;28;20054;-81
2022/07/12 09:26:32;;;;;;;7.32;3.30;;;;;;;29.56;44.08;101597.78;4970436;28;20086;-82
2022/07/12 09:29:10;;;;;;;13.25;3.72;;;;;;;29.66;43.94;101591.75;4953619;28;20047;-81
2022/07/12 09:37:21;;;;;;;8.18;4.22;;;;;;;29.98;43.18;101616.81;4970981;28;20051;-80
2022/07/12 09:39:49;;;;;;;12.95;3.63;;;;;;;29.47;42.65;101511.72;4980376;28;20062;-80
2022/07/12 09:42:15;;;;;;;11.00;4.00;;;;;;;29.92;43.54;101584.91;4989857;28;20058;-81
2022/07/12 09:44:42;;;;;;;11.10;3.75;;;;;;;30.26;42.54;101607.00;4972437;28;20128;-82
2022/07/12 09:47:15;;;;;;;5.25;3.35;;;;;;;30.42;42.31;101611.69;4971533;28;20069;-83
2022/07/12 09:49:43;;;;;;;8.40;3.13;;;;;;;30.64;42.11;101625.53;4972289;28;20125;-82
2022/07/12 09:52:12;;;;;;;5.53;3.35;;;;;;;30.63;41.84;101628.50;4972217;28;20791;-81
2022/07/12 09:54:41;;;;;;;5.43;2.88;;;;;;;30.98;41.10;101635.75;4990303;28;20050;-82
2022/07/12 09:57:17;;;;;;;5.82;3.28;;;;;;;30.92;41.53;101623.84;5009243;28;20303;-83
2022/07/12 09:59:45;;;;;;;6.95;3.70;;;;;;;30.90;41.15;101600.50;4973059;28;20150;-83
2022/07/12 10:02:15;;;;;;;9.82;3.55;;;;;;;30.98;41.32;101611.09;4949789;28;20151;-83
2022/07/12 10:04:42;;;;;;;4.53;2.92;;;;;;;31.11;40.78;101624.44;4967083;28;20058;-84
2022/07/12 10:07:13;;;;;;;6.13;3.80;;;;;;;31.01;40.77;101610.56;4962197;28;20078;-83
2022/07/12 10:09:47;;;;;;;3.77;3.47;;;;;;;31.01;41.16;101600.44;4971829;28;20051;-85
2022/07/12 10:12:16;;;;;;;7.60;3.92;;;;;;;30.64;40.83;101528.81;4971170;28;20054;-84
2022/07/12 10:14:44;;;;;;;4.05;3.53;;;;;;;30.52;40.55;101500.66;4977558;28;20640;-84
2022/07/12 10:17:21;;;;;;;8.68;3.83;;;;;;;30.61;40.80;101537.50;4951453;28;20047;-83
2022/07/12 10:19:48;;;;;;;7.88;3.42;;;;;;;30.57;40.77;101541.84;4951224;28;20050;-83
2022/07/12 10:22:20;;;;;;;8.80;3.72;;;;;;;31.23;40.75;101616.97;4954116;28;20051;-81
2022/07/12 10:24:48;;;;;;;6.32;3.38;;;;;;;31.22;40.39;101606.25;4969204;28;20058;-84
2022/07/12 10:27:28;;;;;;;11.68;3.40;;;;;;;31.57;39.40;101611.47;4952021;28;20831;-83
2022/07/12 10:30:13;;;;;;;7.82;2.92;;;;;;;31.73;38.89;101604.28;4968810;28;20545;-83
2022/07/12 10:32:43;;;;;;;8.63;3.20;;;;;;;31.62;38.87;101586.00;4951132;28;20507;-84
2022/07/12 10:35:19;;;;;;;3.53;2.53;;;;;;;31.54;37.81;101572.75;4950879;28;20415;-81
2022/07/12 10:38:25;;;;;;;4.40;2.70;;;;;;;32.02;37.04;101598.63;4950592;28;20109;-83
2022/07/12 10:40:53;;;;;;;5.05;2.60;;;;;;;31.91;37.45;101550.97;4963845;28;20042;-83
2022/07/12 10:44:04;;;;;;;6.47;2.80;;;;;;;31.18;37.20;101422.16;4950736;28;20093;-83
2022/07/12 10:46:18;;;;;;;7.47;2.60;;;;;;;32.32;36.15;101557.78;4968508;28;20093;-83
2022/07/12 10:48:46;;;;;;;5.75;2.97;;;;;;;32.59;36.07;101589.13;4973719;28;20113;-84
2022/07/12 10:51:20;;;;;;;3.67;3.17;;;;;;;32.65;35.93;101586.16;4979746;28;20046;-83
2022/07/12 10:53:50;;;;;;;4.90;2.67;;;;;;;32.79;35.77;101583.81;4999246;28;20465;-84
2022/07/12 10:56:21;;;;;;;6.40;2.73;;;;;;;32.85;35.02;101563.53;4972605;28;20058;-81
2022/07/12 10:58:58;;;;;;;6.65;2.67;;;;;;;32.52;34.25;101487.66;4971051;28;20054;-84
2022/07/12 11:01:27;;;;;;;8.18;2.20;;;;;;;32.00;34.84;101422.34;4974647;28;20116;-84
2022/07/12 11:04:07;;;;;;;9.15;2.88;;;;;;;32.96;34.70;101589.16;4991436;28;20300;-83
2022/07/12 11:06:39;;;;;;;3.30;2.58;;;;;;;33.09;34.71;101577.75;4970163;28;20046;-83
2022/07/12 11:09:08;;;;;;;8.82;2.42;;;;;;;33.34;34.50;101579.03;4951261;28;20142;-83
2022/07/12 11:11:43;;;;;;;10.18;2.83;;;;;;;33.61;34.08;101582.50;4951267;28;20054;-83
2022/07/12 11:14:11;;;;;;;3.60;2.28;;;;;;;33.66;34.43;101586.38;4952185;28;20079;-83
2022/07/12 11:16:45;;;;;;;6.47;2.08;;;;;;;33.89;34.35;101580.44;4950758;28;20426;-84
2022/07/12 11:19:14;;;;;;;9.65;3.25;;;;;;;34.04;34.68;101577.72;4951647;28;20117;-83
2022/07/12 11:21:48;;;;;;;7.05;2.95;;;;;;;34.14;34.04;101574.22;4951327;28;20165;-81
2022/07/12 11:24:17;;;;;;;12.18;2.42;;;;;;;34.05;34.42;101559.28;4951709;28;20094;-84
2022/07/12 11:26:44;;;;;;;6.53;2.30;;;;;;;34.00;34.35;101551.00;4968259;28;20486;-83
2022/07/12 11:29:12;;;;;;;8.98;2.60;;;;;;;33.45;34.63;101513.84;4951232;28;20133;-85
2022/07/12 11:31:39;;;;;;;3.95;2.65;;;;;;;33.99;35.02;101583.22;4951037;28;20569;-85
2022/07/12 11:34:06;;;;;;;7.65;2.58;;;;;;;34.12;34.64;101576.41;4951075;28;20061;-84
2022/07/12 11:36:33;;;;;;;7.05;2.67;;;;;;;34.18;34.66;101567.06;4951602;28;20051;-84
2022/07/12 11:39:00;;;;;;;5.90;2.35;;;;;;;34.42;34.14;101566.53;4954191;28;20555;-84
2022/07/12 11:41:26;;;;;;;5.15;2.78;;;;;;;34.32;34.02;101566.53;4970287;28;20050;-83